Time;durP1;ratioP1;P1;durP2;ratioP2;P2;SDS_P1;SDS_P2;PMS_P1;PMS_P2;Temp;Humidity;BMP_temperature;BMP_pressure;BME280_temperature;BME280_humidity;BME280_pressure;Samples;Min_cycle;Max_cycle;Signal;HPM_P1;HPM_P2
2022/05/09 00:02:03;;;;;;;3.27;1.93;;;23.50;35.40;;;;;;5061079;28;20413;-80
2022/05/09 00:04:33;;;;;;;5.30;1.80;;;23.50;35.50;;;;;;5060531;28;20474;-80
2022/05/09 00:07:01;;;;;;;7.50;2.03;;;23.50;35.60;;;;;;5059301;28;20540;-80
2022/05/09 00:09:29;;;;;;;3.27;2.10;;;23.40;35.60;;;;;;5060603;28;20458;-80
2022/05/09 00:11:57;;;;;;;2.27;1.97;;;23.40;35.70;;;;;;5061105;28;20450;-80
2022/05/09 00:14:25;;;;;;;4.93;2.40;;;23.40;35.80;;;;;;5060934;28;20413;-80
2022/05/09 00:16:53;;;;;;;8.23;2.57;;;23.30;35.70;;;;;;5060596;28;20458;-80
2022/05/09 00:19:21;;;;;;;4.73;2.20;;;23.40;35.90;;;;;;5060876;28;20517;-80
2022/05/09 00:21:51;;;;;;;4.10;1.83;;;23.30;35.90;;;;;;5064516;28;20417;-80
2022/05/09 00:24:20;;;;;;;2.97;2.00;;;23.30;36.00;;;;;;5062682;28;20532;-80
2022/05/09 00:26:48;;;;;;;4.83;1.80;;;23.30;36.00;;;;;;5062996;28;20502;-78
2022/05/09 00:29:16;;;;;;;2.60;1.90;;;23.30;36.00;;;;;;5063466;28;20486;-79
2022/05/09 00:31:46;;;;;;;2.17;1.80;;;23.30;36.10;;;;;;5055366;28;20464;-79
2022/05/09 00:34:17;;;;;;;3.97;1.90;;;23.30;36.10;;;;;;5060863;28;20447;-79
2022/05/09 00:36:45;;;;;;;3.53;2.13;;;23.20;36.00;;;;;;5061720;28;20469;-80
2022/05/09 00:39:14;;;;;;;8.30;2.50;;;23.20;36.10;;;;;;5061018;28;20470;-77
2022/05/09 00:41:42;;;;;;;3.33;2.10;;;23.20;36.20;;;;;;5061980;28;20443;-79
2022/05/09 00:44:12;;;;;;;9.63;2.90;;;23.20;36.20;;;;;;5062553;28;20479;-79
2022/05/09 00:46:41;;;;;;;4.37;2.27;;;23.20;36.20;;;;;;5062064;28;20477;-79
2022/05/09 00:49:14;;;;;;;4.60;1.80;;;23.20;36.30;;;;;;5061643;28;20490;-79
2022/05/09 00:51:43;;;;;;;5.53;2.17;;;23.20;36.30;;;;;;5061058;28;20477;-79
2022/05/09 00:54:11;;;;;;;4.50;1.97;;;23.10;36.20;;;;;;5063461;28;20469;-80
2022/05/09 00:56:43;;;;;;;2.97;2.00;;;23.10;36.20;;;;;;5061063;28;20470;-79
2022/05/09 00:59:14;;;;;;;2.80;2.13;;;23.10;36.30;;;;;;5061749;28;20441;-80
2022/05/09 01:01:42;;;;;;;3.13;2.20;;;23.10;36.40;;;;;;5061524;28;20437;-78
2022/05/09 01:04:11;;;;;;;2.90;2.23;;;23.10;36.40;;;;;;5061376;28;20429;-80
2022/05/09 01:06:40;;;;;;;3.10;2.03;;;23.10;36.40;;;;;;5061528;28;20449;-79
2022/05/09 01:09:10;;;;;;;4.30;2.07;;;23.10;36.40;;;;;;5062755;28;20466;-80
2022/05/09 01:11:38;;;;;;;3.60;2.20;;;23.00;36.50;;;;;;5060355;28;21024;-80
2022/05/09 01:14:09;;;;;;;2.40;2.10;;;23.00;36.50;;;;;;5062724;28;20422;-81
2022/05/09 01:16:37;;;;;;;4.83;2.20;;;23.00;36.60;;;;;;5063143;28;20474;-80
2022/05/09 01:19:13;;;;;;;4.00;2.20;;;23.00;36.60;;;;;;5062966;28;20485;-80
2022/05/09 01:21:43;;;;;;;4.00;2.10;;;23.00;36.60;;;;;;5063262;28;20481;-79
2022/05/09 01:24:15;;;;;;;2.97;2.00;;;23.00;36.70;;;;;;5062590;28;20477;-81
2022/05/09 01:26:43;;;;;;;2.10;1.77;;;23.00;36.70;;;;;;5059120;28;20477;-77
2022/05/09 01:29:14;;;;;;;3.80;2.00;;;23.00;36.70;;;;;;5056802;28;20497;-79
2022/05/09 01:31:43;;;;;;;2.73;2.03;;;23.00;36.70;;;;;;5063454;28;20494;-80
2022/05/09 01:34:11;;;;;;;2.60;2.00;;;22.90;36.60;;;;;;5062745;28;20462;-79
2022/05/09 01:36:39;;;;;;;3.73;2.50;;;22.90;36.60;;;;;;5072399;28;20446;-80
2022/05/09 01:39:10;;;;;;;2.70;2.03;;;22.90;36.70;;;;;;5070183;28;20430;-80
2022/05/09 01:41:39;;;;;;;2.73;2.20;;;22.90;36.70;;;;;;5062738;28;20471;-80
2022/05/09 01:44:10;;;;;;;3.03;2.60;;;22.90;36.70;;;;;;5061169;28;20489;-80
2022/05/09 01:49:29;;;;;;;3.37;2.20;;;22.90;36.60;;;;;;5062583;28;20467;-80
2022/05/09 01:49:29;;;;;;;2.70;2.30;;;22.90;36.70;;;;;;5060223;28;20452;-80
2022/05/09 01:51:57;;;;;;;3.67;2.27;;;22.90;36.70;;;;;;5041350;28;20439;-79
2022/05/09 01:54:27;;;;;;;4.30;2.50;;;22.90;36.70;;;;;;5042488;28;20454;-80
2022/05/09 01:56:55;;;;;;;2.23;2.03;;;22.90;36.70;;;;;;5041182;28;20493;-79
2022/05/09 01:59:23;;;;;;;3.63;2.10;;;22.90;36.70;;;;;;5040021;28;20498;-82
2022/05/09 02:01:53;;;;;;;3.53;2.43;;;22.80;36.70;;;;;;5041213;28;20482;-80
2022/05/09 02:04:22;;;;;;;3.17;2.23;;;22.80;36.70;;;;;;5041355;28;20478;-82
2022/05/09 02:06:50;;;;;;;3.10;2.50;;;22.80;36.80;;;;;;5057187;28;20475;-79
2022/05/09 02:09:18;;;;;;;3.20;2.00;;;22.80;36.80;;;;;;5060737;28;20539;-81
2022/05/09 02:11:48;;;;;;;4.23;2.50;;;22.80;36.80;;;;;;5060849;28;20477;-82
2022/05/09 02:14:16;;;;;;;3.70;2.07;;;22.80;36.80;;;;;;5061512;28;20446;-79
2022/05/09 02:16:44;;;;;;;2.83;2.27;;;22.80;36.80;;;;;;5059435;28;20537;-79
2022/05/09 02:19:12;;;;;;;3.80;2.70;;;22.80;36.90;;;;;;5058894;28;20445;-79
2022/05/09 02:21:40;;;;;;;3.87;2.47;;;22.80;36.90;;;;;;5057646;28;20455;-79
2022/05/09 02:24:09;;;;;;;3.67;2.23;;;22.80;36.90;;;;;;5058407;28;20474;-79
2022/05/09 02:26:37;;;;;;;4.57;2.50;;;22.80;36.90;;;;;;5058859;28;20505;-79
2022/05/09 02:29:07;;;;;;;2.63;2.27;;;22.70;36.80;;;;;;5058274;28;20463;-79
2022/05/09 02:31:35;;;;;;;4.07;2.27;;;22.70;36.90;;;;;;5057451;28;20446;-79
2022/05/09 02:34:03;;;;;;;3.13;2.27;;;22.70;37.00;;;;;;5057176;28;20509;-79
2022/05/09 02:36:31;;;;;;;5.30;2.53;;;22.70;37.00;;;;;;5057968;28;20474;-79
2022/05/09 02:38:59;;;;;;;2.50;2.30;;;22.70;37.00;;;;;;5052483;28;20507;-79
2022/05/09 02:41:27;;;;;;;3.73;2.20;;;22.70;37.00;;;;;;5038038;28;20446;-80
2022/05/09 02:43:55;;;;;;;2.20;1.80;;;22.60;37.00;;;;;;5039032;28;20443;-79
2022/05/09 02:46:25;;;;;;;3.47;2.33;;;22.70;37.20;;;;;;5040088;28;20517;-79
2022/05/09 02:48:53;;;;;;;2.20;2.10;;;22.60;37.00;;;;;;5039917;28;20444;-80
2022/05/09 02:51:22;;;;;;;2.33;1.90;;;22.70;37.10;;;;;;5039109;28;20446;-80
2022/05/09 02:53:50;;;;;;;5.77;2.13;;;22.60;37.00;;;;;;5042979;28;20465;-79
2022/05/09 02:56:17;;;;;;;3.93;2.63;;;22.60;37.10;;;;;;5056832;28;20477;-79
2022/05/09 02:58:45;;;;;;;2.60;2.40;;;22.60;37.10;;;;;;5052570;28;20886;-80
2022/05/09 03:01:13;;;;;;;3.37;2.63;;;22.60;37.20;;;;;;5056944;28;20416;-79
2022/05/09 03:06:28;;;;;;;4.73;2.53;;;22.60;37.20;;;;;;5057066;28;20468;-79
2022/05/09 03:08:56;;;;;;;2.40;2.20;;;22.50;37.20;;;;;;5055961;28;20508;-80
2022/05/09 03:11:24;;;;;;;2.50;1.77;;;22.50;37.20;;;;;;5054741;28;20446;-79
2022/05/09 03:13:53;;;;;;;3.90;2.27;;;22.50;37.10;;;;;;5055014;28;20534;-79
2022/05/09 03:16:21;;;;;;;4.37;2.70;;;22.50;37.20;;;;;;5054656;28;20481;-79
2022/05/09 03:18:52;;;;;;;2.30;2.10;;;22.50;37.20;;;;;;5055753;28;20450;-79
2022/05/09 03:21:20;;;;;;;3.00;2.10;;;22.60;37.30;;;;;;5056461;28;20442;-79
2022/05/09 03:23:48;;;;;;;1.97;1.80;;;22.60;37.40;;;;;;5056496;28;20475;-79
2022/05/09 03:26:16;;;;;;;2.30;2.10;;;22.60;37.30;;;;;;5055982;28;20513;-79
2022/05/09 03:28:44;;;;;;;2.23;2.03;;;22.50;37.30;;;;;;5054197;28;20570;-79
2022/05/09 03:31:13;;;;;;;2.83;2.20;;;22.40;37.20;;;;;;5055188;28;20423;-79
2022/05/09 03:33:41;;;;;;;3.00;2.50;;;22.50;37.30;;;;;;5055209;28;20447;-79
2022/05/09 03:36:11;;;;;;;3.33;2.20;;;22.50;37.30;;;;;;5054681;28;20466;-78
2022/05/09 03:38:39;;;;;;;2.20;2.00;;;22.50;37.30;;;;;;5054595;28;20477;-79
2022/05/09 03:41:07;;;;;;;2.47;2.27;;;22.50;37.30;;;;;;5054852;28;20480;-79
2022/05/09 03:43:35;;;;;;;2.90;2.10;;;22.40;37.20;;;;;;5054285;28;20536;-79
2022/05/09 03:46:03;;;;;;;2.83;2.27;;;22.50;37.40;;;;;;5058435;28;20458;-80
2022/05/09 03:48:32;;;;;;;2.60;2.10;;;22.50;37.40;;;;;;5057744;28;20452;-79
2022/05/09 03:51:01;;;;;;;3.83;2.20;;;22.50;37.40;;;;;;5054854;28;20607;-79
2022/05/09 03:53:31;;;;;;;2.53;2.13;;;22.50;37.90;;;;;;5055401;28;20465;-79
2022/05/09 03:55:59;;;;;;;2.40;1.80;;;22.50;37.40;;;;;;5057682;28;20481;-80
2022/05/09 03:58:27;;;;;;;4.30;2.13;;;22.40;37.30;;;;;;5057977;28;21025;-79
2022/05/09 04:00:55;;;;;;;5.33;2.43;;;22.50;37.40;;;;;;5057548;28;20525;-78
2022/05/09 04:03:24;;;;;;;5.23;1.90;;;22.50;37.20;;;;;;5056367;28;20513;-78
2022/05/09 04:05:52;;;;;;;2.10;2.00;;;22.50;37.40;;;;;;5043658;28;20452;-80
2022/05/09 04:08:21;;;;;;;1.80;1.70;;;22.50;37.40;;;;;;5042032;28;20509;-80
2022/05/09 04:10:53;;;;;;;3.63;2.23;;;22.50;37.40;;;;;;5041832;28;21055;-79
2022/05/09 04:13:21;;;;;;;2.70;2.07;;;22.50;37.40;;;;;;5042831;28;20447;-79
2022/05/09 04:18:37;;;;;;;2.10;1.90;;;22.40;37.30;;;;;;5056419;28;20450;-79
2022/05/09 04:21:05;;;;;;;3.80;2.37;;;22.50;37.40;;;;;;5058178;28;20455;-79
2022/05/09 04:23:33;;;;;;;2.63;2.43;;;22.40;37.30;;;;;;5057123;28;20507;-79
2022/05/09 04:26:02;;;;;;;2.30;2.10;;;22.50;37.30;;;;;;5057350;28;20450;-79
2022/05/09 04:28:31;;;;;;;2.40;2.07;;;22.50;37.40;;;;;;5056847;28;20514;-79
2022/05/09 04:30:59;;;;;;;2.90;1.97;;;22.50;37.40;;;;;;5057182;28;20558;-79
2022/05/09 04:33:29;;;;;;;3.97;2.20;;;22.50;37.40;;;;;;5056954;28;20428;-81
2022/05/09 04:35:58;;;;;;;3.67;2.20;;;22.50;37.40;;;;;;5037328;28;20475;-78
2022/05/09 04:38:26;;;;;;;2.17;2.03;;;22.50;37.40;;;;;;5037063;28;20448;-79
2022/05/09 04:40:56;;;;;;;2.10;1.97;;;22.50;37.40;;;;;;5036870;28;20465;-79
2022/05/09 04:43:28;;;;;;;7.93;2.00;;;22.50;37.30;;;;;;5036701;28;20425;-80
2022/05/09 04:45:58;;;;;;;1.77;1.67;;;22.40;37.30;;;;;;5037565;28;20416;-79
2022/05/09 04:48:26;;;;;;;2.07;1.87;;;22.40;37.30;;;;;;5036402;28;20486;-79
2022/05/09 04:50:54;;;;;;;3.40;2.10;;;22.40;37.40;;;;;;5050316;28;20521;-79
2022/05/09 04:53:22;;;;;;;2.00;1.90;;;22.40;37.30;;;;;;5057724;28;20462;-79
2022/05/09 04:55:50;;;;;;;1.80;1.70;;;22.50;37.40;;;;;;5058057;28;20447;-79
2022/05/09 04:58:19;;;;;;;2.03;1.90;;;22.50;37.40;;;;;;5057123;28;20500;-79
2022/05/09 05:00:49;;;;;;;2.17;1.97;;;22.50;37.40;;;;;;5058062;28;20528;-79
2022/05/09 05:03:17;;;;;;;2.30;2.00;;;22.60;37.30;;;;;;5059991;28;20514;-79
2022/05/09 05:05:45;;;;;;;2.40;2.20;;;22.50;37.30;;;;;;5058800;28;20416;-79
2022/05/09 05:08:13;;;;;;;2.90;1.90;;;22.50;37.40;;;;;;5056456;28;20544;-79
2022/05/09 05:10:42;;;;;;;2.70;2.37;;;22.50;37.40;;;;;;5058435;28;20475;-79
2022/05/09 05:13:12;;;;;;;3.83;2.40;;;22.50;37.40;;;;;;5060812;28;20871;-79
2022/05/09 05:15:40;;;;;;;2.60;1.93;;;22.60;37.40;;;;;;5059288;28;21083;-80
2022/05/09 05:18:11;;;;;;;2.30;2.10;;;22.50;37.40;;;;;;5058603;28;20445;-80
2022/05/09 05:20:39;;;;;;;2.40;2.20;;;22.50;37.40;;;;;;5059103;28;20467;-80
2022/05/09 05:23:07;;;;;;;2.00;1.90;;;22.50;37.40;;;;;;5063058;28;20569;-80
2022/05/09 05:25:35;;;;;;;2.10;1.90;;;22.60;37.50;;;;;;5068080;28;20455;-80
2022/05/09 05:28:05;;;;;;;2.70;1.93;;;22.60;37.40;;;;;;5070421;28;20460;-79
2022/05/09 05:30:35;;;;;;;1.77;1.67;;;22.50;37.30;;;;;;5063154;28;20520;-81
2022/05/09 05:33:04;;;;;;;2.53;2.30;;;22.60;37.50;;;;;;5062020;28;20492;-79
2022/05/09 05:35:33;;;;;;;3.10;1.90;;;22.50;37.50;;;;;;5061062;28;20592;-79
2022/05/09 05:38:01;;;;;;;3.43;2.17;;;22.60;37.50;;;;;;5059182;28;20502;-79
2022/05/09 05:40:29;;;;;;;2.33;2.13;;;22.60;37.50;;;;;;5057693;28;20472;-79
2022/05/09 05:42:57;;;;;;;2.20;2.00;;;22.60;37.50;;;;;;5058915;28;20475;-81
2022/05/09 05:45:25;;;;;;;4.80;1.70;;;22.60;37.40;;;;;;5058487;28;20492;-79
2022/05/09 05:47:53;;;;;;;2.23;2.03;;;22.60;37.40;;;;;;5058270;28;20505;-79
2022/05/09 05:50:23;;;;;;;2.40;2.20;;;22.50;37.40;;;;;;5057608;28;20529;-79
2022/05/09 05:52:52;;;;;;;2.30;2.10;;;22.60;37.40;;;;;;5070574;28;20405;-78
2022/05/09 05:55:20;;;;;;;2.97;2.17;;;22.60;37.50;;;;;;5057711;28;20530;-78
2022/05/09 05:57:48;;;;;;;2.50;1.97;;;22.60;37.40;;;;;;5056957;28;20529;-79
2022/05/09 06:00:19;;;;;;;2.17;1.80;;;22.60;37.40;;;;;;5056550;28;20475;-79
2022/05/09 06:02:47;;;;;;;2.50;1.90;;;22.70;37.60;;;;;;5055558;28;20446;-78
2022/05/09 06:05:16;;;;;;;3.17;2.20;;;22.60;37.30;;;;;;5055389;28;20474;-78
2022/05/09 06:07:46;;;;;;;3.10;1.90;;;22.60;37.30;;;;;;5055634;28;20477;-77
2022/05/09 06:10:16;;;;;;;2.23;2.03;;;22.60;37.30;;;;;;5056525;28;20466;-79
2022/05/09 06:12:44;;;;;;;2.40;2.20;;;22.70;37.40;;;;;;5055897;28;20442;-81
2022/05/09 06:15:28;;;;;;;2.10;2.00;;;22.70;37.40;;;;;;5056181;28;20425;-78
2022/05/09 06:17:57;;;;;;;2.50;1.90;;;22.70;37.30;;;;;;5057315;28;20442;-79
2022/05/09 06:20:26;;;;;;;2.43;2.23;;;22.70;37.40;;;;;;5057730;28;20513;-78
2022/05/09 06:22:56;;;;;;;2.83;2.30;;;22.80;37.30;;;;;;5057934;28;20568;-78
2022/05/09 06:25:26;;;;;;;1.63;1.53;;;22.80;37.30;;;;;;5058438;28;20419;-78
2022/05/09 06:27:55;;;;;;;2.30;2.10;;;22.80;37.20;;;;;;5058237;28;20536;-78
2022/05/09 06:30:24;;;;;;;2.40;1.90;;;22.90;37.40;;;;;;5057069;28;20544;-77
2022/05/09 06:32:52;;;;;;;2.17;2.00;;;22.90;37.10;;;;;;5056644;28;20446;-78
2022/05/09 06:35:23;;;;;;;2.90;2.20;;;23.00;37.20;;;;;;5058794;28;20454;-79
2022/05/09 06:37:52;;;;;;;1.93;1.83;;;23.00;37.10;;;;;;5059880;28;20497;-78
2022/05/09 06:40:21;;;;;;;3.10;1.90;;;23.00;37.10;;;;;;5059095;28;20441;-79
2022/05/09 06:42:51;;;;;;;2.60;1.90;;;23.10;37.10;;;;;;5060190;28;20488;-79
2022/05/09 06:45:19;;;;;;;2.50;2.30;;;23.10;37.10;;;;;;5059190;28;20472;-79
2022/05/09 06:47:48;;;;;;;3.10;2.17;;;23.10;36.90;;;;;;5057526;28;20454;-78
2022/05/09 06:50:28;;;;;;;2.10;1.90;;;23.10;36.90;;;;;;5057996;28;20500;-79
2022/05/09 06:52:56;;;;;;;2.00;1.90;;;23.20;36.90;;;;;;5059340;28;20503;-79
2022/05/09 06:55:42;;;;;;;3.87;2.07;;;23.20;36.90;;;;;;5059573;28;20796;-78
2022/05/09 06:58:12;;;;;;;5.70;2.10;;;23.20;36.90;;;;;;5059191;28;20517;-79
2022/05/09 07:00:41;;;;;;;2.07;1.97;;;23.30;36.80;;;;;;5059894;28;20464;-79
2022/05/09 07:03:12;;;;;;;2.30;1.73;;;23.30;36.80;;;;;;5056104;28;20534;-78
2022/05/09 07:05:43;;;;;;;2.03;1.93;;;23.40;36.80;;;;;;5056898;28;20435;-78
2022/05/09 07:08:11;;;;;;;2.00;1.90;;;23.40;36.80;;;;;;5058464;28;20493;-79
2022/05/09 07:10:39;;;;;;;2.43;1.90;;;23.50;36.80;;;;;;5059091;28;20879;-79
2022/05/09 07:13:08;;;;;;;2.80;2.30;;;23.50;36.60;;;;;;5058705;28;20496;-79
2022/05/09 07:15:37;;;;;;;2.00;1.90;;;23.60;36.60;;;;;;5058586;28;20446;-78
2022/05/09 07:18:06;;;;;;;2.33;2.07;;;23.60;36.60;;;;;;5059008;28;20450;-79
2022/05/09 07:20:34;;;;;;;2.20;2.10;;;23.70;36.50;;;;;;5058337;28;20479;-78
2022/05/09 07:23:06;;;;;;;2.00;1.80;;;23.70;36.40;;;;;;5059004;28;20442;-78
2022/05/09 07:25:34;;;;;;;1.90;1.73;;;23.80;36.30;;;;;;5058721;28;20474;-78
2022/05/09 07:28:02;;;;;;;1.77;1.67;;;23.90;36.20;;;;;;5059653;28;20446;-78
2022/05/09 07:30:31;;;;;;;2.90;2.30;;;23.80;36.30;;;;;;5060613;28;20474;-79
2022/05/09 07:33:01;;;;;;;2.10;2.00;;;23.90;36.40;;;;;;5064498;28;20484;-78
2022/05/09 07:35:29;;;;;;;2.10;1.93;;;24.00;36.30;;;;;;5063764;28;20417;-79
2022/05/09 07:37:57;;;;;;;3.00;2.03;;;24.00;36.20;;;;;;5063663;28;20480;-79
2022/05/09 07:40:31;;;;;;;1.97;1.87;;;24.10;36.30;;;;;;5063813;28;20436;-79
2022/05/09 07:42:59;;;;;;;2.10;1.83;;;24.20;36.20;;;;;;5063513;28;20460;-78
2022/05/09 07:45:27;;;;;;;2.37;2.17;;;24.30;36.20;;;;;;5064177;28;20474;-79
2022/05/09 07:47:55;;;;;;;2.33;2.13;;;24.30;36.30;;;;;;5064644;28;20478;-79
2022/05/09 07:50:26;;;;;;;2.03;1.90;;;24.40;36.20;;;;;;5062405;28;20508;-79
2022/05/09 07:52:54;;;;;;;1.70;1.60;;;24.50;36.30;;;;;;5062785;28;20425;-79
2022/05/09 07:55:21;;;;;;;1.97;1.80;;;24.50;36.20;;;;;;5063031;28;20858;-79
2022/05/09 07:57:49;;;;;;;2.43;1.70;;;24.60;36.10;;;;;;5063902;28;20453;-80
2022/05/09 08:00:22;;;;;;;2.33;2.13;;;24.60;35.90;;;;;;5063122;28;20451;-80
2022/05/09 08:02:50;;;;;;;2.13;2.00;;;24.70;36.00;;;;;;5063425;28;20439;-79
2022/05/09 08:05:18;;;;;;;2.60;1.73;;;24.80;35.90;;;;;;5064008;28;20454;-81
2022/05/09 08:07:48;;;;;;;2.03;1.93;;;24.90;35.80;;;;;;5061894;28;20788;-78
2022/05/09 08:10:16;;;;;;;2.10;1.90;;;24.90;35.70;;;;;;5057951;28;20468;-78
2022/05/09 08:12:44;;;;;;;2.13;2.00;;;25.00;35.60;;;;;;5063189;28;20446;-79
2022/05/09 08:15:13;;;;;;;4.93;1.80;;;25.10;35.50;;;;;;5064214;28;20446;-79
2022/05/09 08:17:44;;;;;;;2.17;1.90;;;25.20;35.50;;;;;;5063334;28;20442;-78
2022/05/09 08:20:13;;;;;;;2.20;2.00;;;25.30;35.30;;;;;;5063949;28;20433;-79
2022/05/09 08:22:41;;;;;;;2.40;2.23;;;25.40;35.20;;;;;;5064337;28;20435;-79
2022/05/09 08:25:11;;;;;;;2.30;1.67;;;25.40;35.10;;;;;;5062011;28;20458;-78
2022/05/09 08:27:41;;;;;;;2.50;2.20;;;25.50;35.00;;;;;;5054346;28;20520;-79
2022/05/09 08:30:09;;;;;;;2.30;1.90;;;25.50;34.90;;;;;;5043484;28;20475;-79
2022/05/09 08:32:43;;;;;;;2.13;2.03;;;25.70;34.90;;;;;;5043676;28;20422;-79
2022/05/09 08:35:13;;;;;;;2.07;1.97;;;25.70;34.70;;;;;;5042558;28;20473;-79
2022/05/09 08:37:43;;;;;;;2.23;2.03;;;25.80;34.60;;;;;;5043300;28;20420;-77
2022/05/09 08:40:13;;;;;;;2.30;2.10;;;25.90;34.60;;;;;;5049960;28;20441;-79
2022/05/09 08:42:42;;;;;;;2.43;1.80;;;26.00;34.40;;;;;;5063659;28;20450;-79
2022/05/09 08:45:25;;;;;;;2.57;2.00;;;26.10;34.30;;;;;;5063441;28;20428;-79
2022/05/09 08:48:35;;;;;;;3.20;2.23;;;26.10;34.10;;;;;;5062693;28;20417;-78
2022/05/09 08:51:09;;;;;;;2.13;1.93;;;26.20;34.10;;;;;;5063712;28;20577;-79
2022/05/09 08:53:39;;;;;;;2.23;2.13;;;26.20;34.00;;;;;;5067993;28;20426;-80
2022/05/09 08:56:10;;;;;;;2.97;2.13;;;26.20;34.00;;;;;;5062543;28;20497;-79
2022/05/09 08:58:40;;;;;;;2.30;1.80;;;26.30;34.00;;;;;;5064904;28;20418;-79
2022/05/09 09:01:13;;;;;;;2.20;2.00;;;26.40;33.70;;;;;;5063487;28;20431;-79
2022/05/09 09:03:45;;;;;;;3.93;2.03;;;26.50;33.80;;;;;;5056191;28;20499;-79
2022/05/09 09:06:17;;;;;;;7.50;2.43;;;26.60;33.90;;;;;;5063509;28;20422;-79
2022/05/09 09:08:54;;;;;;;7.57;2.33;;;26.70;34.10;;;;;;5065067;28;20442;-79
2022/05/09 09:11:28;;;;;;;7.43;2.50;;;26.70;34.50;;;;;;5062025;28;20499;-79
2022/05/09 09:13:59;;;;;;;5.03;2.57;;;26.80;34.70;;;;;;5052308;28;20421;-79
2022/05/09 09:16:38;;;;;;;3.70;2.30;;;26.80;34.60;;;;;;5063440;28;20426;-80
2022/05/09 09:19:16;;;;;;;7.27;2.30;;;26.90;34.60;;;;;;5062921;28;20505;-79
2022/05/09 09:21:46;;;;;;;4.70;2.17;;;27.00;34.60;;;;;;5042860;28;20462;-78
2022/05/09 09:24:22;;;;;;;5.53;2.20;;;27.00;34.40;;;;;;5042463;28;20452;-78
2022/05/09 09:26:57;;;;;;;7.43;2.40;;;27.00;34.40;;;;;;5054912;28;20449;-79
2022/05/09 09:29:27;;;;;;;4.97;2.40;;;27.10;34.30;;;;;;5060611;28;20470;-79
2022/05/09 09:31:57;;;;;;;3.40;2.40;;;27.20;34.30;;;;;;5063250;28;20466;-80
2022/05/09 09:34:27;;;;;;;4.00;2.13;;;27.30;34.20;;;;;;5062236;28;20447;-79
2022/05/09 09:36:58;;;;;;;11.23;2.70;;;27.30;33.90;;;;;;5060015;28;20425;-79
2022/05/09 09:39:29;;;;;;;3.10;2.13;;;27.40;33.80;;;;;;5060232;28;20454;-79
2022/05/09 09:41:58;;;;;;;5.13;2.37;;;27.50;33.70;;;;;;5043294;28;20449;-79
2022/05/09 09:44:27;;;;;;;4.60;2.00;;;27.60;33.50;;;;;;5047861;28;20425;-79
2022/05/09 09:47:04;;;;;;;4.30;2.50;;;27.70;33.40;;;;;;5043807;28;20474;-79
2022/05/09 09:49:34;;;;;;;4.10;2.30;;;27.70;33.20;;;;;;5041969;28;20457;-79
2022/05/09 09:52:04;;;;;;;2.23;2.03;;;27.80;33.80;;;;;;5043529;28;20433;-79
2022/05/09 09:54:33;;;;;;;3.00;2.00;;;27.80;32.90;;;;;;5048450;28;20423;-79
2022/05/09 09:57:17;;;;;;;4.40;2.20;;;28.00;32.80;;;;;;5044187;28;20455;-79
2022/05/09 09:59:45;;;;;;;5.87;2.73;;;28.00;32.70;;;;;;5043154;28;20453;-79
2022/05/09 10:02:16;;;;;;;2.17;2.07;;;28.10;32.70;;;;;;5049085;28;20451;-78
2022/05/09 10:04:45;;;;;;;5.53;2.50;;;28.20;32.60;;;;;;5042432;28;20455;-79
2022/05/09 10:07:16;;;;;;;3.20;1.80;;;28.30;32.40;;;;;;5042761;28;20423;-79
2022/05/09 10:09:45;;;;;;;7.50;2.53;;;28.30;32.20;;;;;;5044700;28;20491;-79
2022/05/09 10:12:23;;;;;;;3.77;2.23;;;28.40;32.20;;;;;;5062210;28;20504;-78
2022/05/09 10:14:52;;;;;;;4.13;2.33;;;28.50;32.10;;;;;;5059951;28;20442;-78
2022/05/09 10:17:22;;;;;;;2.53;2.00;;;28.50;31.90;;;;;;5055352;28;20502;-79
2022/05/09 10:19:51;;;;;;;2.43;1.80;;;28.60;31.80;;;;;;5058709;28;20464;-78
2022/05/09 10:25:09;;;;;;;4.70;2.40;;;28.70;31.60;;;;;;5060778;28;20511;-79
2022/05/09 10:27:39;;;;;;;4.70;2.00;;;28.80;32.00;;;;;;5062588;28;20425;-79
2022/05/09 10:30:09;;;;;;;3.17;1.80;;;28.90;31.30;;;;;;5061901;28;20490;-79
2022/05/09 10:32:41;;;;;;;2.80;2.13;;;29.00;31.20;;;;;;5061574;28;20447;-80
2022/05/09 10:35:14;;;;;;;3.40;2.17;;;29.10;31.10;;;;;;5061545;28;20456;-80
2022/05/09 10:37:44;;;;;;;4.10;2.30;;;29.10;31.00;;;;;;5059681;28;20467;-79
2022/05/09 10:40:14;;;;;;;3.57;1.70;;;29.20;30.90;;;;;;5049261;28;20454;-79
2022/05/09 10:42:46;;;;;;;2.70;2.00;;;29.30;30.80;;;;;;5065301;28;20478;-79
2022/05/09 10:45:18;;;;;;;2.87;2.07;;;29.40;30.80;;;;;;5063121;28;20510;-79
2022/05/09 10:47:49;;;;;;;2.00;1.73;;;29.50;30.50;;;;;;5055813;28;20467;-79
2022/05/09 10:50:19;;;;;;;2.07;1.40;;;29.60;30.50;;;;;;5056907;28;20475;-79
2022/05/09 10:52:59;;;;;;;1.70;1.60;;;29.70;30.30;;;;;;5061468;28;20447;-80
2022/05/09 10:55:32;;;;;;;1.77;1.60;;;29.80;30.20;;;;;;5047265;28;20439;-79
2022/05/09 10:58:03;;;;;;;8.20;1.90;;;29.90;30.10;;;;;;5061980;28;20537;-80
2022/05/09 11:00:32;;;;;;;1.87;1.77;;;30.00;29.90;;;;;;5062398;28;20490;-79
2022/05/09 11:03:06;;;;;;;2.20;2.00;;;30.10;29.80;;;;;;5063481;28;20481;-79
2022/05/09 11:05:49;;;;;;;2.70;1.60;;;30.20;29.70;;;;;;5054871;28;20470;-78
2022/05/09 11:08:22;;;;;;;4.13;1.83;;;30.40;29.70;;;;;;5053689;28;20489;-79
2022/05/09 11:10:54;;;;;;;1.80;1.70;;;30.50;29.50;;;;;;5043923;28;20552;-79
2022/05/09 11:13:26;;;;;;;1.73;1.60;;;30.70;29.40;;;;;;5034452;28;20408;-78
2022/05/09 11:16:00;;;;;;;2.23;1.90;;;31.30;29.20;;;;;;5055679;28;20517;-79
2022/05/09 11:18:37;;;;;;;1.57;1.47;;;32.40;28.40;;;;;;5054764;28;20449;-79
2022/05/09 11:21:12;;;;;;;1.70;1.60;;;33.60;27.30;;;;;;5057912;28;20469;-79
2022/05/09 11:23:46;;;;;;;2.70;1.87;;;34.60;26.30;;;;;;5057455;28;20489;-77
2022/05/09 11:26:15;;;;;;;1.53;1.40;;;35.70;25.50;;;;;;5045137;28;20451;-79
2022/05/09 11:29:04;;;;;;;2.30;1.60;;;36.50;24.70;;;;;;5040432;28;20451;-79
2022/05/09 11:31:37;;;;;;;1.27;1.27;;;37.30;24.00;;;;;;5038636;28;20521;-78
2022/05/09 11:34:23;;;;;;;1.33;1.23;;;38.00;23.30;;;;;;5048541;28;20450;-79
2022/05/09 11:37:02;;;;;;;3.47;1.80;;;38.60;22.90;;;;;;5061106;28;20468;-80
2022/05/09 11:39:37;;;;;;;2.10;1.13;;;39.10;22.20;;;;;;5061097;28;20505;-79
2022/05/09 11:44:58;;;;;;;1.30;1.20;;;40.20;21.50;;;;;;5066286;28;20480;-80
2022/05/09 11:47:34;;;;;;;1.33;1.27;;;40.50;21.00;;;;;;5069143;28;20446;-80
2022/05/09 11:50:26;;;;;;;1.20;1.10;;;40.90;20.90;;;;;;5068359;28;20462;-79
2022/05/09 11:52:53;;;;;;;1.03;0.93;;;41.30;20.70;;;;;;5046570;28;20435;-80
2022/05/09 11:55:22;;;;;;;3.80;1.20;;;41.60;20.40;;;;;;5055310;28;20474;-79
2022/05/09 11:57:53;;;;;;;1.07;1.07;;;41.80;20.20;;;;;;5051463;28;20448;-81
2022/05/09 12:00:47;;;;;;;1.83;1.30;;;42.00;19.80;;;;;;5054440;28;20454;-78
2022/05/09 12:03:16;;;;;;;1.20;1.20;;;42.10;20.00;;;;;;5056899;28;20435;-80
2022/05/09 12:06:00;;;;;;;1.83;1.30;;;42.50;19.80;;;;;;5068411;28;20437;-81
2022/05/09 12:08:42;;;;;;;1.23;1.23;;;42.50;19.70;;;;;;5067228;28;20477;-80
2022/05/09 12:11:29;;;;;;;2.73;1.23;;;42.70;19.70;;;;;;5060391;28;20461;-81
2022/05/09 12:13:58;;;;;;;1.10;1.10;;;42.70;19.30;;;;;;5063310;28;20449;-79
2022/05/09 12:16:45;;;;;;;4.30;1.27;;;42.90;19.50;;;;;;5066605;28;20472;-79
2022/05/09 12:19:14;;;;;;;1.10;1.10;;;42.80;19.40;;;;;;5040413;28;20524;-78
2022/05/09 12:21:42;;;;;;;1.10;1.10;;;43.10;19.20;;;;;;5041380;28;20439;-79
2022/05/09 12:24:34;;;;;;;3.53;1.20;;;43.30;19.20;;;;;;5042126;28;20506;-78
2022/05/09 12:27:03;;;;;;;4.93;1.40;;;43.20;19.20;;;;;;5043767;28;20442;-78
2022/05/09 12:29:52;;;;;;;9.17;1.20;;;43.00;19.10;;;;;;5042316;28;20477;-78
2022/05/09 12:32:22;;;;;;;3.83;1.20;;;42.60;19.50;;;;;;5061139;28;20473;-80
2022/05/09 12:34:50;;;;;;;3.23;1.10;;;42.60;19.50;;;;;;5056599;28;20438;-79
2022/05/09 12:37:44;;;;;;;2.30;1.30;;;42.70;19.50;;;;;;5063591;28;20503;-79
2022/05/09 12:40:22;;;;;;;1.17;1.10;;;42.70;19.40;;;;;;5069765;28;20457;-79
2022/05/09 12:42:51;;;;;;;1.17;1.07;;;42.60;19.50;;;;;;5066170;28;20449;-79
2022/05/09 12:45:19;;;;;;;1.93;1.07;;;42.50;19.60;;;;;;5061841;28;20457;-79
2022/05/09 12:47:49;;;;;;;3.17;1.17;;;42.40;19.60;;;;;;5067310;28;20434;-80
2022/05/09 12:50:24;;;;;;;1.37;1.30;;;42.10;19.80;;;;;;5069901;28;20469;-80
2022/05/09 12:52:53;;;;;;;1.67;1.30;;;42.00;19.90;;;;;;5068170;28;20473;-80
2022/05/09 12:58:24;;;;;;;2.63;1.37;;;41.80;20.10;;;;;;5059263;28;20445;-80
2022/05/09 13:00:56;;;;;;;2.73;1.23;;;41.60;20.20;;;;;;5071118;28;20446;-80
2022/05/09 13:03:47;;;;;;;1.33;1.23;;;41.40;20.30;;;;;;5071363;28;20445;-80
2022/05/09 13:06:17;;;;;;;1.50;1.40;;;41.00;20.40;;;;;;5074705;28;20449;-80
2022/05/09 13:08:45;;;;;;;1.33;1.33;;;40.20;21.00;;;;;;5074741;28;20439;-81
2022/05/09 13:11:17;;;;;;;2.40;1.20;;;39.30;21.70;;;;;;5067967;28;20458;-80
2022/05/09 13:13:52;;;;;;;5.80;1.33;;;38.40;22.30;;;;;;5064108;28;20551;-80
2022/05/09 13:16:27;;;;;;;1.20;1.20;;;37.50;23.00;;;;;;5063949;28;20500;-80
2022/05/09 13:18:57;;;;;;;1.60;1.43;;;36.70;23.50;;;;;;5064405;28;20440;-80
2022/05/09 13:21:29;;;;;;;2.73;1.50;;;36.00;24.70;;;;;;5060133;28;20435;-79